Time;durP1;ratioP1;P1;durP2;ratioP2;P2;SDS_P1;SDS_P2;PMS_P1;PMS_P2;Temp;Humidity;BMP_temperature;BMP_pressure;BME280_temperature;BME280_humidity;BME280_pressure;Samples;Min_cycle;Max_cycle;Signal;HPM_P1;HPM_P2
2023/02/04 00:00:19;;;;;;;3.00;0.22;;;;;;;4.17;48.86;102960.72;4941663;28;20054;-70
2023/02/04 00:02:45;;;;;;;12.57;0.60;;;;;;;4.09;48.35;102951.91;4941582;28;20699;-73
2023/02/04 00:05:11;;;;;;;12.93;0.30;;;;;;;4.05;49.14;102952.69;4958662;28;20046;-74
2023/02/04 00:07:37;;;;;;;8.77;0.43;;;;;;;3.92;49.14;102957.63;4938901;28;20460;-75
2023/02/04 00:10:04;;;;;;;3.65;0.20;;;;;;;3.66;49.46;102958.75;4971794;28;20057;-72
2023/02/04 00:12:30;;;;;;;4.95;0.40;;;;;;;3.68;49.32;102967.44;4969844;28;20037;-75
2023/02/04 00:14:55;;;;;;;6.25;0.30;;;;;;;3.70;49.35;102979.56;4943162;28;20035;-73
2023/02/04 00:17:21;;;;;;;1.33;0.28;;;;;;;3.93;48.42;102969.69;4945039;28;20034;-73
2023/02/04 00:19:46;;;;;;;7.43;1.15;;;;;;;3.75;49.26;102972.75;4938079;28;20086;-72
2023/02/04 00:22:12;;;;;;;7.00;0.68;;;;;;;3.89;48.07;102978.22;4940786;28;20034;-72
2023/02/04 00:24:37;;;;;;;4.63;0.45;;;;;;;3.68;48.61;102973.47;4945090;28;20210;-71
2023/02/04 00:27:04;;;;;;;10.13;0.68;;;;;;;3.67;49.10;102988.94;4946256;28;20254;-72
2023/02/04 00:29:30;;;;;;;6.75;1.20;;;;;;;3.64;48.95;102991.47;4944877;28;20048;-75
2023/02/04 00:31:56;;;;;;;7.80;1.55;;;;;;;3.72;48.90;102997.69;4944669;28;20041;-72
2023/02/04 00:34:21;;;;;;;5.38;0.75;;;;;;;3.67;48.65;103007.03;4938511;28;20039;-74
2023/02/04 00:36:47;;;;;;;8.43;0.60;;;;;;;3.64;49.15;103006.97;4947733;28;20118;-72
2023/02/04 00:39:12;;;;;;;2.75;0.60;;;;;;;3.70;48.79;103012.31;4939647;28;20066;-73
2023/02/04 00:41:38;;;;;;;6.43;0.57;;;;;;;3.71;48.89;103014.03;4930723;28;20708;-74
2023/02/04 00:44:04;;;;;;;5.88;0.38;;;;;;;3.71;49.00;103014.91;4931192;28;20518;-75
2023/02/04 00:46:29;;;;;;;9.00;0.57;;;;;;;3.72;48.59;103020.97;4940974;28;20461;-66
2023/02/04 00:48:56;;;;;;;4.30;0.30;;;;;;;3.74;48.71;103037.41;4942139;28;20043;-68
2023/02/04 00:51:21;;;;;;;5.65;0.40;;;;;;;3.68;48.63;103037.25;4938160;28;20089;-68
2023/02/04 00:53:46;;;;;;;2.92;0.20;;;;;;;3.74;48.95;103029.66;4936889;28;20058;-69
2023/02/04 00:56:12;;;;;;;3.08;0.15;;;;;;;3.82;48.49;103028.09;4950095;28;20038;-70
2023/02/04 00:58:38;;;;;;;6.35;0.47;;;;;;;3.67;48.86;103028.63;4938984;28;20492;-67
2023/02/04 01:01:03;;;;;;;2.83;0.47;;;;;;;3.55;49.25;103033.50;4945757;28;20110;-67
2023/02/04 01:03:29;;;;;;;3.85;0.50;;;;;;;3.60;48.92;103050.00;4941852;28;20059;-67
2023/02/04 01:05:55;;;;;;;8.00;1.15;;;;;;;3.50;49.23;103048.91;4947357;28;20121;-68
2023/02/04 01:08:20;;;;;;;4.00;0.70;;;;;;;3.47;49.38;103056.59;4942082;28;20050;-70
2023/02/04 01:10:46;;;;;;;9.40;1.02;;;;;;;3.42;49.74;103053.00;4945278;28;20117;-71
2023/02/04 01:13:12;;;;;;;4.03;0.20;;;;;;;3.48;49.15;103052.28;4943552;28;20038;-67
2023/02/04 01:15:37;;;;;;;10.73;0.77;;;;;;;3.50;49.23;103056.66;4941323;28;20063;-67
2023/02/04 01:18:03;;;;;;;9.20;0.40;;;;;;;3.49;48.80;103070.44;4946002;28;20046;-67
2023/02/04 01:20:28;;;;;;;8.02;0.73;;;;;;;3.42;49.37;103081.44;4940711;28;20039;-67
2023/02/04 01:22:54;;;;;;;5.70;0.52;;;;;;;3.36;49.21;103091.66;4946303;28;20054;-68
2023/02/04 01:25:19;;;;;;;3.97;0.65;;;;;;;3.31;49.67;103096.66;4975841;28;20038;-69
2023/02/04 01:27:44;;;;;;;11.98;0.30;;;;;;;3.24;49.79;103111.97;4948026;28;20960;-68
2023/02/04 01:30:12;;;;;;;7.45;0.52;;;;;;;3.18;49.93;103110.97;4943246;28;20045;-69
2023/02/04 01:32:38;;;;;;;5.03;0.40;;;;;;;3.16;50.05;103104.00;4933068;28;20094;-69
2023/02/04 01:35:04;;;;;;;12.07;1.20;;;;;;;3.17;49.56;103114.38;4950825;28;20126;-68
2023/02/04 01:37:29;;;;;;;10.43;0.45;;;;;;;3.10;49.96;103117.63;4941592;28;20415;-68
2023/02/04 01:39:55;;;;;;;5.80;0.30;;;;;;;3.00;49.85;103136.28;4949668;28;20035;-69
2023/02/04 01:42:20;;;;;;;5.35;0.47;;;;;;;2.92;50.06;103137.81;4943884;28;20047;-68
2023/02/04 01:44:46;;;;;;;10.48;0.77;;;;;;;2.76;50.29;103145.09;4943651;28;20519;-68
2023/02/04 01:47:12;;;;;;;12.02;1.05;;;;;;;2.73;50.52;103152.78;4944546;28;20031;-69
2023/02/04 01:49:37;;;;;;;7.13;0.68;;;;;;;2.51;50.98;103153.84;4944171;28;20516;-68
2023/02/04 01:52:03;;;;;;;8.85;0.68;;;;;;;2.39;51.03;103161.19;4946218;28;20045;-68
2023/02/04 01:54:30;;;;;;;7.38;0.50;;;;;;;2.28;51.45;103160.84;4946570;28;20047;-68
2023/02/04 01:56:55;;;;;;;8.73;1.33;;;;;;;2.21;51.24;103156.34;4952392;28;20031;-70
2023/02/04 01:59:22;;;;;;;3.40;0.65;;;;;;;2.16;51.43;103165.66;4944627;28;20423;-70
2023/02/04 02:01:50;;;;;;;4.90;0.20;;;;;;;2.13;51.02;103168.09;4953682;28;20047;-71
2023/02/04 02:04:30;;;;;;;10.45;1.98;;;;;;;2.06;51.38;103172.19;4942184;28;20621;-70
2023/02/04 02:07:00;;;;;;;7.78;0.73;;;;;;;2.03;51.48;103181.56;4967224;28;20034;-68
2023/02/04 02:09:26;;;;;;;9.55;0.90;;;;;;;2.03;52.39;103178.97;4954446;28;20050;-68
2023/02/04 02:11:52;;;;;;;15.80;0.75;;;;;;;2.12;51.89;103179.28;4943774;28;20034;-73
2023/02/04 02:14:18;;;;;;;7.07;0.50;;;;;;;2.14;52.19;103175.91;4944886;28;20420;-73
2023/02/04 02:16:43;;;;;;;5.68;1.08;;;;;;;2.21;52.04;103174.41;4945737;28;20046;-74
2023/02/04 02:19:18;;;;;;;10.75;0.90;;;;;;;2.29;51.71;103180.69;4945495;28;20035;-74
2023/02/04 02:21:54;;;;;;;2.97;0.28;;;;;;;2.29;52.17;103183.28;4950463;28;20114;-73
2023/02/04 02:24:25;;;;;;;3.92;0.50;;;;;;;2.48;52.05;103186.41;4943505;28;20744;-71
2023/02/04 02:26:53;;;;;;;9.05;0.90;;;;;;;2.36;52.20;103181.75;4959963;28;20023;-70
2023/02/04 02:29:19;;;;;;;8.57;0.88;;;;;;;2.35;52.52;103188.63;4956153;28;20058;-71
2023/02/04 02:31:45;;;;;;;5.70;0.30;;;;;;;2.45;52.26;103202.69;4956413;28;20035;-68
2023/02/04 02:34:10;;;;;;;5.95;0.40;;;;;;;2.52;51.87;103194.31;4941832;28;20395;-74
2023/02/04 02:36:36;;;;;;;3.05;0.35;;;;;;;2.48;52.13;103201.91;4943151;28;20539;-74
2023/02/04 02:39:02;;;;;;;10.68;0.40;;;;;;;2.59;52.01;103208.28;4943908;28;20407;-75
2023/02/04 02:41:27;;;;;;;4.53;0.50;;;;;;;2.61;51.70;103214.38;4946599;28;20035;-74
2023/02/04 02:43:53;;;;;;;4.35;0.45;;;;;;;2.60;51.61;103211.72;4929162;28;20057;-75
2023/02/04 02:46:18;;;;;;;7.20;0.70;;;;;;;2.59;51.74;103212.56;4934874;28;20089;-72
2023/02/04 02:48:44;;;;;;;5.13;0.45;;;;;;;2.56;51.65;103221.09;4971180;28;20110;-69
2023/02/04 02:51:10;;;;;;;9.65;1.00;;;;;;;2.50;51.82;103228.66;4944581;28;20492;-68
2023/02/04 02:53:35;;;;;;;4.93;0.80;;;;;;;2.55;51.78;103229.66;4940830;28;20094;-69
2023/02/04 02:56:03;;;;;;;10.48;0.60;;;;;;;2.53;51.42;103237.38;4945346;28;20031;-69
2023/02/04 02:58:32;;;;;;;8.02;0.80;;;;;;;2.56;51.66;103239.16;4940848;28;20171;-70
2023/02/04 03:01:04;;;;;;;5.90;0.65;;;;;;;2.51;50.98;103243.28;4944711;28;20512;-69
2023/02/04 03:03:37;;;;;;;6.18;0.32;;;;;;;2.43;51.39;103260.25;4946671;28;20101;-69
2023/02/04 03:06:08;;;;;;;3.08;0.45;;;;;;;2.50;51.18;103263.06;4959064;28;20113;-70
2023/02/04 03:08:34;;;;;;;2.15;0.15;;;;;;;2.43;51.09;103260.25;4945885;28;20038;-70
2023/02/04 03:11:00;;;;;;;2.92;0.28;;;;;;;2.39;51.04;103258.41;4973254;28;20165;-69
2023/02/04 03:13:26;;;;;;;2.95;0.40;;;;;;;2.21;51.25;103261.25;4945612;28;20042;-69
2023/02/04 03:15:52;;;;;;;7.85;0.40;;;;;;;2.06;51.52;103270.22;4940930;28;20031;-70
2023/02/04 03:18:19;;;;;;;8.07;0.47;;;;;;;1.97;51.51;103269.03;4940392;28;20043;-70
2023/02/04 03:20:46;;;;;;;4.05;0.75;;;;;;;1.91;51.61;103265.44;4927221;28;20035;-69
2023/02/04 03:23:12;;;;;;;6.43;0.20;;;;;;;1.98;51.17;103276.84;4973400;28;20030;-71
2023/02/04 03:25:39;;;;;;;2.38;0.45;;;;;;;2.08;51.27;103273.72;4970734;28;20029;-70
2023/02/04 03:28:05;;;;;;;4.85;0.40;;;;;;;2.00;51.57;103275.19;4949606;28;20031;-69
2023/02/04 03:30:31;;;;;;;2.90;0.30;;;;;;;2.00;51.87;103282.03;4939367;28;20094;-71
2023/02/04 03:32:57;;;;;;;3.72;0.20;;;;;;;2.03;51.37;103277.00;4940576;28;20046;-70
2023/02/04 03:35:22;;;;;;;3.63;0.30;;;;;;;2.00;51.26;103275.19;4940540;28;20105;-69
2023/02/04 03:37:48;;;;;;;3.63;0.30;;;;;;;2.03;51.52;103284.75;4949520;28;20434;-74
2023/02/04 03:40:14;;;;;;;7.53;0.43;;;;;;;2.10;51.32;103282.41;4948922;28;20401;-74
2023/02/04 03:42:39;;;;;;;2.35;0.40;;;;;;;2.02;51.25;103285.53;4939981;28;20042;-74
2023/02/04 03:45:05;;;;;;;1.48;0.10;;;;;;;2.00;51.41;103293.25;4935751;28;20062;-75
2023/02/04 03:47:31;;;;;;;1.77;0.20;;;;;;;2.01;51.55;103296.69;4940003;28;20034;-75
2023/02/04 03:49:56;;;;;;;5.85;0.60;;;;;;;2.08;51.19;103314.13;4943596;28;20744;-74
2023/02/04 03:52:21;;;;;;;4.18;0.30;;;;;;;2.03;51.07;103315.69;4942451;28;20027;-73
2023/02/04 03:54:47;;;;;;;1.98;0.68;;;;;;;1.87;51.13;103320.31;4941531;28;20579;-75
2023/02/04 03:57:14;;;;;;;5.97;0.30;;;;;;;1.84;51.18;103330.53;4942895;28;20035;-73
2023/02/04 03:59:40;;;;;;;1.23;0.10;;;;;;;1.93;51.30;103335.13;4949504;28;20043;-72
2023/02/04 04:02:06;;;;;;;1.58;0.10;;;;;;;1.95;51.16;103328.31;4956315;28;20039;-72
2023/02/04 04:04:31;;;;;;;1.20;0.63;;;;;;;1.93;51.31;103346.31;4938706;28;20212;-71
2023/02/04 04:06:57;;;;;;;4.68;0.52;;;;;;;1.92;51.15;103338.53;4944726;28;20110;-71
2023/02/04 04:09:22;;;;;;;2.88;0.20;;;;;;;1.82;51.20;103347.66;4946451;28;20040;-71
2023/02/04 04:11:48;;;;;;;5.45;0.32;;;;;;;1.75;51.46;103335.31;4946160;28;20130;-75
2023/02/04 04:14:13;;;;;;;2.58;0.43;;;;;;;1.77;51.42;103344.00;4939451;28;20043;-75
2023/02/04 04:16:39;;;;;;;1.60;0.22;;;;;;;1.76;51.43;103351.69;4940622;28;20114;-68
2023/02/04 04:19:04;;;;;;;3.85;0.20;;;;;;;1.82;51.35;103363.13;4942766;28;20149;-70
2023/02/04 04:21:30;;;;;;;4.68;0.30;;;;;;;1.84;51.42;103369.22;4929465;28;20042;-68
2023/02/04 04:23:55;;;;;;;5.60;0.28;;;;;;;1.73;51.23;103367.94;4937659;28;20153;-68
2023/02/04 04:26:21;;;;;;;2.25;0.30;;;;;;;1.62;51.07;103369.25;4941175;28;20632;-69
2023/02/04 04:28:46;;;;;;;2.60;0.10;;;;;;;1.61;51.21;103368.34;4943306;28;20039;-69
2023/02/04 04:31:12;;;;;;;1.02;0.52;;;;;;;1.66;51.26;103378.81;4972728;28;20085;-68
2023/02/04 04:33:38;;;;;;;4.75;0.50;;;;;;;1.63;51.43;103376.16;4940692;28;20803;-69
2023/02/04 04:36:04;;;;;;;2.97;0.40;;;;;;;1.65;51.80;103382.25;4945240;28;20043;-68
2023/02/04 04:38:30;;;;;;;4.38;0.10;;;;;;;1.66;51.44;103378.81;4950675;28;20351;-69
2023/02/04 04:40:55;;;;;;;3.22;0.20;;;;;;;1.71;51.40;103387.63;4945427;28;20034;-69
2023/02/04 04:43:21;;;;;;;2.78;0.40;;;;;;;1.64;51.39;103389.09;4944918;28;20039;-68
2023/02/04 04:45:46;;;;;;;1.95;0.10;;;;;;;1.65;51.26;103389.97;4948509;28;20031;-69
2023/02/04 04:48:12;;;;;;;1.45;0.20;;;;;;;1.73;51.03;103388.56;4944607;28;20093;-69
2023/02/04 04:50:37;;;;;;;1.45;0.22;;;;;;;1.75;50.90;103393.75;4943012;28;20845;-68
2023/02/04 04:53:03;;;;;;;1.30;0.17;;;;;;;1.69;51.37;103397.88;4945877;28;20045;-69
2023/02/04 04:55:31;;;;;;;5.85;0.20;;;;;;;1.69;50.91;103402.16;4943717;28;20217;-68
2023/02/04 04:57:57;;;;;;;4.38;0.22;;;;;;;1.72;50.80;103403.13;4935642;28;20031;-67
2023/02/04 05:00:22;;;;;;;1.23;0.20;;;;;;;1.77;51.04;103405.88;4945822;28;20038;-68
2023/02/04 05:02:48;;;;;;;2.50;0.20;;;;;;;1.80;51.03;103412.88;4944050;28;20038;-68
2023/02/04 05:05:13;;;;;;;6.18;0.40;;;;;;;1.77;50.64;103415.31;4945004;28;20533;-69
2023/02/04 05:07:39;;;;;;;6.88;0.30;;;;;;;1.70;50.41;103403.91;4944411;28;20054;-67
2023/02/04 05:10:05;;;;;;;0.15;0.00;;;;;;;1.63;50.68;103412.22;4945680;28;20047;-68
2023/02/04 05:12:31;;;;;;;1.63;0.20;;;;;;;1.73;50.88;103414.34;4950193;28;20440;-68
2023/02/04 05:14:56;;;;;;;1.33;0.13;;;;;;;1.65;50.62;103420.91;4944381;28;20038;-70
2023/02/04 05:17:22;;;;;;;3.15;0.30;;;;;;;1.67;50.64;103424.44;4944372;28;19921;-70
2023/02/04 05:19:47;;;;;;;2.45;0.10;;;;;;;1.59;50.30;103431.84;4958580;28;20079;-67
2023/02/04 05:22:12;;;;;;;2.13;0.17;;;;;;;1.49;50.68;103424.59;4944884;28;20122;-73
2023/02/04 05:24:38;;;;;;;2.67;0.10;;;;;;;1.44;50.92;103437.31;4944541;28;20043;-70
2023/02/04 05:27:03;;;;;;;1.02;0.20;;;;;;;1.43;51.02;103442.41;4945228;28;20023;-68
2023/02/04 05:29:29;;;;;;;2.45;0.30;;;;;;;1.43;50.91;103450.13;4942166;28;20531;-71
2023/02/04 05:31:54;;;;;;;7.30;0.50;;;;;;;1.46;50.74;103456.28;4944355;28;20039;-69
2023/02/04 05:34:20;;;;;;;1.85;0.40;;;;;;;1.37;50.82;103463.59;4942064;28;20046;-71
2023/02/04 05:36:45;;;;;;;3.20;0.30;;;;;;;1.39;50.89;103463.66;4944601;28;20250;-71
2023/02/04 05:39:11;;;;;;;1.23;0.40;;;;;;;1.31;50.65;103463.38;4944757;28;20039;-71
2023/02/04 05:41:36;;;;;;;1.35;0.68;;;;;;;1.26;50.78;103459.72;4942312;28;20398;-71
2023/02/04 05:44:02;;;;;;;3.22;1.30;;;;;;;1.15;51.04;103474.75;4945610;28;20611;-70
2023/02/04 05:46:27;;;;;;;2.92;0.50;;;;;;;1.08;51.40;103467.56;4943495;28;20038;-72
2023/02/04 05:48:52;;;;;;;3.15;0.60;;;;;;;1.08;51.25;103472.72;4943450;28;20051;-71
2023/02/04 05:51:18;;;;;;;6.45;1.05;;;;;;;1.11;51.45;103472.88;4942915;28;20563;-69
2023/02/04 05:53:43;;;;;;;2.63;0.93;;;;;;;1.17;51.28;103478.28;4944517;28;20039;-69
2023/02/04 05:56:09;;;;;;;2.28;0.82;;;;;;;1.15;51.27;103484.16;4943597;28;20053;-68
2023/02/04 05:58:34;;;;;;;3.47;0.93;;;;;;;1.22;51.50;103496.50;4939952;28;20161;-68
2023/02/04 06:01:01;;;;;;;1.40;0.47;;;;;;;1.19;51.02;103497.22;4944897;28;20054;-68
2023/02/04 06:03:28;;;;;;;1.55;0.70;;;;;;;1.20;50.99;103487.84;4942066;28;20129;-76
2023/02/04 06:05:54;;;;;;;1.90;0.40;;;;;;;1.18;50.82;103494.63;4946903;28;20031;-75
2023/02/04 06:08:19;;;;;;;4.25;0.70;;;;;;;1.08;51.23;103501.97;4942885;28;20685;-76
2023/02/04 06:10:45;;;;;;;3.42;0.50;;;;;;;0.95;51.11;103496.22;4946297;28;20046;-70
2023/02/04 06:13:10;;;;;;;1.23;0.30;;;;;;;0.85;51.69;103489.81;4942874;28;20367;-71
2023/02/04 06:15:36;;;;;;;3.38;0.50;;;;;;;0.95;51.95;103497.13;4943431;28;20399;-69
2023/02/04 06:18:01;;;;;;;5.28;0.55;;;;;;;1.06;51.48;103490.72;4943780;28;20034;-66
2023/02/04 06:20:27;;;;;;;1.20;0.50;;;;;;;1.07;51.65;103491.59;4941044;28;20038;-66
2023/02/04 06:22:53;;;;;;;2.28;0.43;;;;;;;1.10;51.55;103500.34;4942885;28;20058;-66
2023/02/04 06:25:19;;;;;;;3.50;0.43;;;;;;;1.10;51.30;103499.44;4942407;28;20043;-69
2023/02/04 06:27:45;;;;;;;2.75;0.40;;;;;;;1.13;51.27;103503.81;4974961;28;20031;-68
2023/02/04 06:30:11;;;;;;;2.47;0.30;;;;;;;1.16;51.34;103516.84;4943297;28;20105;-68
2023/02/04 06:32:37;;;;;;;3.15;0.60;;;;;;;1.22;50.73;103527.44;4953165;28;20039;-66
2023/02/04 06:35:02;;;;;;;1.60;0.32;;;;;;;1.22;50.72;103528.28;4950221;28;20054;-66
2023/02/04 06:37:27;;;;;;;1.98;0.65;;;;;;;1.19;50.68;103532.44;4948962;28;20697;-67
2023/02/04 06:39:53;;;;;;;3.22;0.40;;;;;;;1.20;50.87;103531.63;4940562;28;20035;-67
2023/02/04 06:42:19;;;;;;;2.58;0.30;;;;;;;1.20;50.58;103539.34;4941780;28;20261;-66
2023/02/04 06:44:45;;;;;;;3.55;0.70;;;;;;;1.18;51.01;103541.00;4938815;28;20047;-67
2023/02/04 06:47:11;;;;;;;3.08;0.50;;;;;;;1.17;51.02;103549.50;4975512;28;20031;-67
2023/02/04 06:49:36;;;;;;;2.22;0.43;;;;;;;1.31;50.79;103566.44;4942257;28;20047;-65
2023/02/04 06:52:02;;;;;;;1.38;0.57;;;;;;;1.39;50.52;103575.34;4941776;28;20129;-66
2023/02/04 06:54:28;;;;;;;1.48;0.40;;;;;;;1.42;49.87;103578.13;4937792;28;20122;-67
2023/02/04 06:56:53;;;;;;;1.60;0.80;;;;;;;1.43;50.44;103579.88;4941300;28;20119;-67
2023/02/04 06:59:18;;;;;;;3.35;0.82;;;;;;;1.43;50.16;103579.88;4938358;28;20116;-68
2023/02/04 07:01:45;;;;;;;2.20;0.47;;;;;;;1.37;50.35;103589.88;4942499;28;20028;-68
2023/02/04 07:04:10;;;;;;;0.85;0.30;;;;;;;1.39;50.60;103593.41;4938932;28;20047;-67
2023/02/04 07:06:36;;;;;;;2.83;0.60;;;;;;;1.38;50.28;103585.63;4941053;28;20035;-67
2023/02/04 07:09:02;;;;;;;1.08;0.45;;;;;;;1.40;50.36;103579.75;4941963;28;20043;-68
2023/02/04 07:11:27;;;;;;;1.75;0.85;;;;;;;1.46;50.65;103585.16;4940084;28;20118;-68
2023/02/04 07:13:52;;;;;;;2.72;0.60;;;;;;;1.43;50.32;103587.59;4938805;28;20104;-67
2023/02/04 07:16:18;;;;;;;1.48;0.60;;;;;;;1.47;50.55;103584.34;4939788;28;20042;-68
2023/02/04 07:18:43;;;;;;;2.05;0.88;;;;;;;1.48;50.47;103588.69;4944928;28;20093;-68
2023/02/04 07:21:09;;;;;;;2.78;0.63;;;;;;;1.50;49.99;103588.72;4941281;28;20336;-67
2023/02/04 07:23:34;;;;;;;4.22;0.95;;;;;;;1.48;50.16;103590.38;4947793;28;20046;-68
2023/02/04 07:25:59;;;;;;;2.55;1.20;;;;;;;1.50;50.21;103591.31;4960239;28;20690;-66
2023/02/04 07:28:25;;;;;;;3.03;1.33;;;;;;;1.57;50.33;103595.91;4961892;28;20090;-67
2023/02/04 07:30:51;;;;;;;3.53;2.15;;;;;;;1.62;50.04;103603.84;4955364;28;20058;-68
2023/02/04 07:33:16;;;;;;;3.55;1.45;;;;;;;1.61;49.93;103605.53;4938428;28;20058;-66
2023/02/04 07:35:42;;;;;;;2.63;1.13;;;;;;;1.56;49.88;103608.75;4943349;28;20122;-67
2023/02/04 07:38:07;;;;;;;6.63;2.17;;;;;;;1.56;49.86;103608.75;4941133;28;20046;-68
2023/02/04 07:40:33;;;;;;;3.88;1.80;;;;;;;1.49;50.40;103615.34;4941184;28;20027;-67
2023/02/04 07:42:58;;;;;;;10.43;1.23;;;;;;;1.42;49.95;103619.34;4942383;28;20034;-67
2023/02/04 07:45:25;;;;;;;3.03;1.38;;;;;;;1.55;49.98;103625.00;4971595;28;20563;-67
2023/02/04 07:47:51;;;;;;;3.80;1.75;;;;;;;1.68;50.04;103632.44;4941011;28;20049;-68
2023/02/04 07:50:17;;;;;;;1.35;0.80;;;;;;;1.69;49.85;103635.09;4958318;28;20042;-66
2023/02/04 07:52:42;;;;;;;4.07;1.20;;;;;;;1.87;49.20;103644.41;4967972;28;20450;-67
2023/02/04 07:55:08;;;;;;;8.82;0.80;;;;;;;1.83;49.15;103648.53;4959275;28;20039;-68
2023/02/04 07:57:33;;;;;;;4.00;1.27;;;;;;;1.84;49.27;103659.72;4960832;28;20512;-67
2023/02/04 07:59:59;;;;;;;1.55;0.85;;;;;;;1.86;49.43;103663.25;4961857;28;20335;-66
2023/02/04 08:02:25;;;;;;;4.45;1.30;;;;;;;1.96;48.94;103659.38;4960060;28;20042;-66
2023/02/04 08:04:51;;;;;;;2.67;1.00;;;;;;;1.92;49.06;103659.22;4960380;28;20939;-66
2023/02/04 08:07:16;;;;;;;2.65;1.33;;;;;;;2.18;48.82;103662.00;4959439;28;20034;-67
2023/02/04 08:09:41;;;;;;;6.45;1.55;;;;;;;2.26;48.07;103663.16;4961942;28;20069;-66
2023/02/04 08:12:07;;;;;;;2.55;0.80;;;;;;;2.06;48.36;103661.50;4963789;28;20531;-67
2023/02/04 08:14:32;;;;;;;3.00;1.42;;;;;;;1.88;48.64;103662.50;4963073;28;20043;-67
2023/02/04 08:16:58;;;;;;;1.55;0.93;;;;;;;1.89;48.71;103663.41;4966461;28;20039;-68
2023/02/04 08:19:23;;;;;;;3.13;1.80;;;;;;;1.96;48.56;103680.00;4962773;28;20043;-67
2023/02/04 08:21:49;;;;;;;4.68;1.85;;;;;;;1.85;48.80;103674.41;4966188;28;20044;-67
2023/02/04 08:24:15;;;;;;;3.60;1.10;;;;;;;1.86;49.04;103677.06;4997860;28;20618;-66
2023/02/04 08:26:41;;;;;;;4.72;1.65;;;;;;;1.94;48.79;103682.53;4965286;28;20089;-66
2023/02/04 08:29:08;;;;;;;3.47;1.48;;;;;;;1.96;48.54;103675.72;4965011;28;20042;-67
2023/02/04 08:31:36;;;;;;;4.72;1.60;;;;;;;1.88;48.73;103677.97;4963651;28;20108;-68
2023/02/04 08:34:03;;;;;;;3.70;1.95;;;;;;;1.89;48.45;103678.88;4963930;28;20446;-67
2023/02/04 08:36:28;;;;;;;3.25;1.70;;;;;;;1.90;48.49;103686.66;4964124;28;20053;-68
2023/02/04 08:38:54;;;;;;;3.67;1.42;;;;;;;1.90;48.58;103685.78;4965934;28;20559;-68
2023/02/04 08:41:19;;;;;;;5.65;1.60;;;;;;;1.76;49.03;103690.38;4965554;28;20035;-67
2023/02/04 08:43:44;;;;;;;2.08;1.20;;;;;;;1.69;49.06;103681.50;4994777;28;20128;-68
2023/02/04 08:46:10;;;;;;;5.68;1.77;;;;;;;1.68;49.30;103689.16;4982592;28;20041;-67
2023/02/04 08:48:36;;;;;;;5.07;1.50;;;;;;;1.79;49.08;103687.03;4961563;28;20046;-67
2023/02/04 08:51:01;;;;;;;6.78;1.70;;;;;;;1.98;48.68;103693.84;4998617;28;20117;-68
2023/02/04 08:53:27;;;;;;;5.50;1.42;;;;;;;1.98;48.49;103699.91;4962279;28;20038;-68
2023/02/04 08:55:52;;;;;;;2.25;1.02;;;;;;;1.88;48.73;103708.94;4963855;28;20129;-67
2023/02/04 08:58:17;;;;;;;2.13;1.48;;;;;;;2.08;48.13;103706.31;4962234;28;20038;-66
2023/02/04 09:00:43;;;;;;;2.95;1.38;;;;;;;2.07;48.32;103707.13;4962222;28;20129;-66
2023/02/04 09:03:08;;;;;;;2.22;1.50;;;;;;;2.11;47.84;103704.75;4965283;28;20152;-67
2023/02/04 09:05:34;;;;;;;3.38;1.42;;;;;;;2.23;47.86;103704.34;4979873;28;20042;-66
2023/02/04 09:07:59;;;;;;;3.88;1.60;;;;;;;2.23;47.20;103706.94;4968115;28;20082;-67
2023/02/04 09:10:25;;;;;;;3.53;1.60;;;;;;;2.13;47.99;103708.25;4942492;28;20050;-68
2023/02/04 09:12:54;;;;;;;5.25;1.30;;;;;;;2.35;47.16;103716.84;4944479;28;20031;-67
2023/02/04 09:15:21;;;;;;;2.63;1.40;;;;;;;2.41;47.86;103713.66;4944005;28;20040;-67
2023/02/04 09:17:46;;;;;;;4.85;1.65;;;;;;;2.54;47.01;103726.22;4944700;28;20038;-67
2023/02/04 09:20:12;;;;;;;6.10;1.63;;;;;;;2.68;46.32;103734.50;4944083;28;20062;-67
2023/02/04 09:22:37;;;;;;;6.72;1.42;;;;;;;2.62;46.84;103735.13;4944376;28;20033;-67
2023/02/04 09:25:03;;;;;;;2.97;1.25;;;;;;;2.62;46.85;103742.88;4945132;28;20943;-68
2023/02/04 09:27:29;;;;;;;2.75;1.00;;;;;;;2.84;46.53;103743.72;4941227;28;20031;-66
2023/02/04 09:29:54;;;;;;;3.78;1.60;;;;;;;2.94;46.34;103736.38;4943657;28;20053;-68
2023/02/04 09:32:20;;;;;;;2.92;1.35;;;;;;;3.02;45.89;103739.25;4942206;28;20729;-66
2023/02/04 09:34:46;;;;;;;4.18;2.00;;;;;;;3.25;45.93;103744.38;4943765;28;20467;-68
2023/02/04 09:37:11;;;;;;;6.10;1.23;;;;;;;3.30;45.50;103748.06;4944109;28;20389;-67
2023/02/04 09:39:36;;;;;;;3.30;1.30;;;;;;;3.42;44.97;103748.50;4940042;28;20070;-68
2023/02/04 09:42:02;;;;;;;3.53;1.52;;;;;;;3.58;45.17;103748.22;4946732;28;20706;-67
2023/02/04 09:44:28;;;;;;;5.07;1.83;;;;;;;3.68;44.41;103740.78;4948924;28;20128;-66
2023/02/04 09:46:57;;;;;;;12.00;4.10;;;;;;;3.55;44.72;103735.19;4945913;28;20126;-67
2023/02/04 09:49:23;;;;;;;4.93;1.92;;;;;;;3.53;44.32;103749.75;4939766;28;20173;-68
2023/02/04 09:51:49;;;;;;;7.43;1.90;;;;;;;3.91;44.13;103739.84;4944266;28;20452;-67
2023/02/04 09:54:17;;;;;;;4.20;2.17;;;;;;;3.78;43.81;103742.84;4942796;28;20035;-66
2023/02/04 09:56:43;;;;;;;3.28;1.23;;;;;;;3.52;44.62;103745.44;4945498;28;20034;-67
2023/02/04 09:59:14;;;;;;;11.02;3.92;;;;;;;3.63;44.39;103747.50;4964575;28;20042;-68
2023/02/04 10:01:40;;;;;;;6.88;2.08;;;;;;;3.51;44.77;103755.69;4942585;28;21485;-69
2023/02/04 10:04:10;;;;;;;2.60;0.93;;;;;;;3.46;44.43;103752.09;4944138;28;20050;-70
2023/02/04 10:06:36;;;;;;;3.97;1.17;;;;;;;4.09;42.90;103762.00;4941959;28;20031;-67
2023/02/04 10:09:01;;;;;;;4.28;1.42;;;;;;;3.72;43.64;103765.94;4942513;28;20047;-68
2023/02/04 10:11:32;;;;;;;2.75;0.82;;;;;;;3.85;43.13;103770.72;4973782;28;20034;-68
2023/02/04 10:13:58;;;;;;;2.80;0.43;;;;;;;3.85;42.68;103772.41;4942479;28;20521;-66
2023/02/04 10:16:36;;;;;;;2.08;0.90;;;;;;;3.86;42.86;103769.88;4941330;28;20043;-67
2023/02/04 10:19:06;;;;;;;2.90;0.85;;;;;;;4.07;42.95;103774.03;4950773;28;20042;-68
2023/02/04 10:21:35;;;;;;;4.93;1.10;;;;;;;3.81;42.04;103776.63;4945579;28;20411;-68
2023/02/04 10:24:04;;;;;;;4.47;0.90;;;;;;;4.04;42.37;103779.09;4944627;28;20097;-69
2023/02/04 10:26:31;;;;;;;4.60;1.08;;;;;;;4.63;41.28;103785.34;4943619;28;20028;-68
2023/02/04 10:29:00;;;;;;;2.42;1.13;;;;;;;5.13;40.46;103774.81;4944813;28;20129;-68
2023/02/04 10:31:36;;;;;;;2.13;1.08;;;;;;;5.34;40.11;103774.53;4941827;28;20050;-67
2023/02/04 10:34:13;;;;;;;3.33;1.08;;;;;;;5.72;39.10;103774.72;4944578;28;20302;-68
2023/02/04 10:36:42;;;;;;;4.65;2.00;;;;;;;5.91;39.38;103774.38;4941652;28;20031;-68
2023/02/04 10:39:16;;;;;;;2.90;0.82;;;;;;;4.81;40.11;103778.16;4945333;28;20565;-66
2023/02/04 10:41:46;;;;;;;2.45;0.70;;;;;;;4.73;40.87;103782.22;4943750;28;20431;-66
2023/02/04 10:44:16;;;;;;;2.53;1.20;;;;;;;5.14;40.80;103777.41;4941357;28;20399;-67
2023/02/04 10:46:42;;;;;;;3.72;1.00;;;;;;;4.69;40.64;103772.59;4943033;28;20026;-67
2023/02/04 10:49:17;;;;;;;2.20;0.40;;;;;;;4.69;40.47;103777.78;4972952;28;20039;-68
2023/02/04 10:51:43;;;;;;;1.92;0.63;;;;;;;5.13;40.38;103777.41;4948714;28;20035;-67
2023/02/04 10:54:31;;;;;;;3.65;1.08;;;;;;;5.80;39.42;103776.69;4939267;28;20556;-67
2023/02/04 10:57:12;;;;;;;2.97;0.65;;;;;;;5.63;39.49;103773.63;4943399;28;20050;-67
2023/02/04 10:59:38;;;;;;;1.48;0.45;;;;;;;5.78;38.65;103777.47;4973239;28;20504;-68
2023/02/04 11:02:37;;;;;;;2.40;0.50;;;;;;;6.14;38.27;103768.88;4944453;28;20040;-68
2023/02/04 11:05:08;;;;;;;1.23;0.68;;;;;;;6.07;37.98;103771.31;4941105;28;20599;-68
2023/02/04 11:07:33;;;;;;;1.75;0.68;;;;;;;6.27;37.68;103773.53;4948319;28;20023;-68
2023/02/04 11:09:59;;;;;;;1.20;0.50;;;;;;;5.94;38.22;103774.44;4942517;28;20050;-66
2023/02/04 11:12:58;;;;;;;2.53;1.17;;;;;;;5.81;37.66;103777.53;4955677;28;20047;-68
2023/02/04 11:15:43;;;;;;;3.25;0.85;;;;;;;5.92;38.43;103767.44;4937733;28;20067;-66
2023/02/04 11:18:20;;;;;;;2.20;0.88;;;;;;;6.25;38.10;103775.22;4944968;28;20109;-68
2023/02/04 11:20:50;;;;;;;4.43;1.20;;;;;;;6.40;37.23;103770.44;4948184;28;20046;-67
2023/02/04 11:23:36;;;;;;;5.20;0.90;;;;;;;5.50;38.47;103765.47;4941771;28;20301;-67
2023/02/04 11:26:03;;;;;;;2.38;0.68;;;;;;;6.17;38.48;103761.16;4942692;28;20555;-67
2023/02/04 11:28:44;;;;;;;1.75;0.80;;;;;;;6.04;38.65;103750.47;4943035;28;20050;-68
2023/02/04 11:31:40;;;;;;;2.65;0.68;;;;;;;5.97;37.09;103758.06;4943626;28;20042;-67